createdAt,value
2017-04-17T00:00:39.618Z,0
2017-04-17T00:01:39.992Z,0
2017-04-17T00:02:40.373Z,0
2017-04-17T00:03:40.772Z,0
2017-04-17T00:04:41.165Z,0
2017-04-17T00:05:41.564Z,0
2017-04-17T00:06:41.952Z,0
2017-04-17T00:07:42.356Z,0
2017-04-17T00:08:42.747Z,0
2017-04-17T00:09:43.143Z,0
2017-04-17T00:10:43.541Z,0
2017-04-17T00:11:43.934Z,0
2017-04-17T00:12:44.337Z,0
2017-04-17T00:13:44.744Z,0
2017-04-17T00:14:45.129Z,0
2017-04-17T00:15:45.527Z,0
2017-04-17T00:16:45.971Z,0
2017-04-17T00:17:46.492Z,0
2017-04-17T00:18:46.370Z,0
2017-04-17T00:19:46.891Z,0
2017-04-17T00:20:47.295Z,0
2017-04-17T00:21:47.695Z,0
2017-04-17T00:22:48.089Z,0
2017-04-17T00:23:48.492Z,0
2017-04-17T00:24:48.886Z,0
2017-04-17T00:25:49.285Z,0
2017-04-17T00:26:49.798Z,0
2017-04-17T00:27:49.696Z,0
2017-04-17T00:28:50.100Z,0
2017-04-17T00:29:50.494Z,0
2017-04-17T00:30:50.887Z,0
2017-04-17T00:31:51.291Z,0
2017-04-17T00:32:51.692Z,0
2017-04-17T00:33:52.094Z,0
2017-04-17T00:34:52.487Z,0
2017-04-17T00:35:52.871Z,0
2017-04-17T00:36:53.269Z,0
2017-04-17T00:37:53.656Z,0
2017-04-17T00:38:54.043Z,0
2017-04-17T00:39:54.426Z,0
2017-04-17T00:40:54.817Z,0
2017-04-17T00:41:55.196Z,0
2017-04-17T00:42:55.587Z,0
2017-04-17T00:43:55.985Z,0
2017-04-17T00:44:56.581Z,0
2017-04-17T00:45:56.965Z,0
2017-04-17T00:46:57.346Z,0
2017-04-17T00:47:57.801Z,0
2017-04-17T00:48:58.191Z,0
2017-04-17T00:49:58.581Z,0
2017-04-17T00:50:58.966Z,0
2017-04-17T00:51:59.379Z,0
2017-04-17T00:52:59.764Z,0
2017-04-17T00:54:00.216Z,0
2017-04-17T00:55:00.971Z,0
2017-04-17T00:56:00.640Z,0
2017-04-17T00:57:01.080Z,0
2017-04-17T00:58:01.481Z,0
2017-04-17T00:59:01.870Z,0
2017-04-17T01:00:02.273Z,0
2017-04-17T01:01:03.069Z,0
2017-04-17T01:02:02.873Z,0
2017-04-17T01:03:03.270Z,0
2017-04-17T01:04:03.915Z,0
2017-04-17T01:05:03.698Z,0
2017-04-17T01:06:04.107Z,0
2017-04-17T01:07:04.490Z,0
2017-04-17T01:08:04.893Z,0
2017-04-17T01:09:05.291Z,0
2017-04-17T01:10:05.690Z,0
2017-04-17T01:11:06.065Z,0
2017-04-17T01:12:06.446Z,0
2017-04-17T01:13:06.846Z,0
2017-04-17T01:14:07.381Z,0
2017-04-17T01:15:07.281Z,0
2017-04-17T01:16:07.662Z,0
2017-04-17T01:17:08.072Z,0
2017-04-17T01:18:08.465Z,0
2017-04-17T01:19:08.871Z,0
2017-04-17T01:20:09.282Z,0
2017-04-17T01:21:09.670Z,0
2017-04-17T01:22:10.075Z,0
2017-04-17T01:23:10.472Z,0
2017-04-17T01:24:10.879Z,0
2017-04-17T01:25:11.435Z,0
2017-04-17T01:26:11.280Z,0
2017-04-17T01:27:11.682Z,0
2017-04-17T01:28:12.076Z,0
2017-04-17T01:29:12.474Z,0
2017-04-17T01:30:13.221Z,0
2017-04-17T01:31:12.873Z,0
2017-04-17T01:32:13.539Z,0
2017-04-17T01:33:13.278Z,0
2017-04-17T01:34:13.679Z,0
2017-04-17T01:35:14.280Z,0
2017-04-17T01:36:14.650Z,0
2017-04-17T01:37:15.058Z,0
2017-04-17T01:38:15.457Z,0
2017-04-17T01:39:15.852Z,0
2017-04-17T01:40:16.244Z,0
2017-04-17T01:41:16.628Z,0
2017-04-17T01:42:17.154Z,0
2017-04-17T01:43:17.037Z,0
2017-04-17T01:44:17.446Z,0
2017-04-17T01:45:17.847Z,0
2017-04-17T01:46:18.245Z,0
2017-04-17T01:47:18.644Z,0
2017-04-17T01:48:19.029Z,0
2017-04-17T01:49:19.418Z,0
2017-04-17T01:50:19.807Z,0
2017-04-17T01:51:20.273Z,0
2017-04-17T01:52:20.716Z,0
2017-04-17T01:53:21.091Z,0
2017-04-17T01:54:21.475Z,0
2017-04-17T01:55:21.968Z,0
2017-04-17T01:56:22.354Z,0
2017-04-17T01:57:22.750Z,0
2017-04-17T01:58:23.148Z,0
2017-04-17T01:59:23.549Z,0
2017-04-17T02:00:24.101Z,0
2017-04-17T02:01:24.529Z,0
2017-04-17T02:02:24.928Z,0
2017-04-17T02:03:25.405Z,0
2017-04-17T02:04:25.808Z,0
2017-04-17T02:05:26.202Z,0
2017-04-17T02:06:26.589Z,0
2017-04-17T02:07:26.988Z,0
2017-04-17T02:08:27.386Z,0
2017-04-17T02:09:27.788Z,0
2017-04-17T02:10:28.376Z,0
2017-04-17T02:11:28.755Z,0
2017-04-17T02:12:29.175Z,0
2017-04-17T02:13:29.582Z,0
2017-04-17T02:14:29.976Z,0
2017-04-17T02:15:30.382Z,0
2017-04-17T02:16:30.771Z,0
2017-04-17T02:17:31.172Z,0
2017-04-17T02:18:31.591Z,0
2017-04-17T02:20:35.500Z,0
2017-04-17T02:20:45.872Z,0
2017-04-17T02:21:46.251Z,0
2017-04-17T02:22:46.652Z,0
2017-04-17T02:23:47.056Z,0
2017-04-17T02:24:47.453Z,0
2017-04-17T02:25:47.850Z,0
2017-04-17T02:26:48.228Z,0
2017-04-17T02:27:48.691Z,0
2017-04-17T02:28:49.100Z,0
2017-04-17T02:29:49.499Z,0
2017-04-17T02:30:49.894Z,0
2017-04-17T02:31:50.296Z,0
2017-04-17T02:32:50.696Z,0
2017-04-17T02:33:51.101Z,0
2017-04-17T02:34:51.530Z,0
2017-04-17T02:35:51.950Z,0
2017-04-17T02:36:52.341Z,0
2017-04-17T02:37:52.701Z,0
2017-04-17T02:38:53.099Z,0
2017-04-17T02:39:53.500Z,0
2017-04-17T02:40:54.051Z,0
2017-04-17T02:41:53.931Z,0
2017-04-17T02:42:53.932Z,0
2017-04-17T02:43:54.322Z,0
2017-04-17T02:44:54.727Z,0
2017-04-17T02:45:55.135Z,0
2017-04-17T02:46:55.525Z,0
2017-04-17T02:47:55.919Z,0
2017-04-17T02:48:56.310Z,0
2017-04-17T02:49:56.728Z,0
2017-04-17T02:50:57.216Z,0
2017-04-17T02:51:57.105Z,0
2017-04-17T02:52:57.506Z,0
2017-04-17T02:53:57.908Z,0
2017-04-17T02:54:58.309Z,0
2017-04-17T02:55:58.704Z,0
2017-04-17T02:56:59.103Z,0
2017-04-17T02:57:59.489Z,0
2017-04-17T02:58:59.898Z,0
2017-04-17T03:00:00.299Z,0
2017-04-17T03:01:00.725Z,0
2017-04-17T03:02:01.124Z,0
2017-04-17T03:03:01.485Z,0
2017-04-17T03:04:01.879Z,0
2017-04-17T03:05:02.297Z,0
2017-04-17T03:06:02.682Z,0
2017-04-17T03:07:03.069Z,0
2017-04-17T03:08:03.462Z,0
2017-04-17T03:09:03.847Z,0
2017-04-17T03:10:04.257Z,0
2017-04-17T03:11:04.651Z,0
2017-04-17T03:12:05.058Z,0
2017-04-17T03:13:05.447Z,0
2017-04-17T03:14:05.840Z,0
2017-04-17T03:15:06.287Z,0
2017-04-17T03:16:06.691Z,0
2017-04-17T03:17:07.091Z,0
2017-04-17T03:18:07.482Z,0
2017-04-17T03:19:08.076Z,0
2017-04-17T03:20:07.883Z,0
2017-04-17T03:21:08.280Z,0
2017-04-17T03:22:08.678Z,0
2017-04-17T03:23:09.071Z,0
2017-04-17T03:24:09.467Z,0
2017-04-17T03:25:09.865Z,0
2017-04-17T03:26:10.267Z,0
2017-04-17T03:27:10.667Z,0
2017-04-17T03:28:11.127Z,0
2017-04-17T03:29:11.527Z,0
2017-04-17T03:30:11.922Z,0
2017-04-17T03:31:12.293Z,0
2017-04-17T03:32:12.680Z,0
2017-04-17T03:33:13.087Z,0
2017-04-17T03:34:13.482Z,0
2017-04-17T03:35:13.883Z,0
2017-04-17T03:36:14.280Z,0
2017-04-17T03:37:14.687Z,0
2017-04-17T03:38:15.111Z,0
2017-04-17T03:39:15.518Z,0
2017-04-17T03:40:15.933Z,0
2017-04-17T03:41:16.332Z,0
2017-04-17T03:42:16.729Z,0
2017-04-17T03:43:17.123Z,0
2017-04-17T03:44:17.538Z,0
2017-04-17T03:45:17.934Z,0
2017-04-17T03:46:18.334Z,0
2017-04-17T03:47:18.744Z,0
2017-04-17T03:48:19.141Z,0
2017-04-17T03:49:19.532Z,0
2017-04-17T03:50:19.925Z,0
2017-04-17T03:51:20.311Z,0
2017-04-17T03:52:20.702Z,0
2017-04-17T03:53:21.092Z,0
2017-04-17T03:54:21.458Z,0
2017-04-17T03:55:21.857Z,0
2017-04-17T03:56:22.271Z,0
2017-04-17T03:57:22.708Z,0
2017-04-17T03:58:23.109Z,0
2017-04-17T03:59:23.516Z,5
2017-04-17T04:00:24.042Z,5
2017-04-17T04:01:24.010Z,5
2017-04-17T04:02:24.449Z,5
2017-04-17T04:03:24.890Z,5
2017-04-17T04:04:25.356Z,5
2017-04-17T04:05:25.823Z,5
2017-04-17T04:06:26.292Z,5
2017-04-17T04:07:26.760Z,10
2017-04-17T04:08:27.216Z,10
2017-04-17T04:09:27.670Z,10
2017-04-17T04:10:28.106Z,10
2017-04-17T04:11:28.556Z,10
2017-04-17T04:12:29.017Z,10
2017-04-17T04:13:29.451Z,10
2017-04-17T04:14:29.924Z,10
2017-04-17T04:15:30.588Z,10
2017-04-17T04:16:30.469Z,10
2017-04-17T04:17:30.964Z,15
2017-04-17T04:18:31.415Z,15
2017-04-17T04:19:31.847Z,20
2017-04-17T04:20:32.313Z,20
2017-04-17T04:21:32.772Z,20
2017-04-17T04:22:33.239Z,25
2017-04-17T04:23:33.695Z,25
2017-04-17T04:24:34.253Z,30
2017-04-17T04:25:34.723Z,30
2017-04-17T04:26:35.168Z,30
2017-04-17T04:27:35.614Z,35
2017-04-17T04:28:36.072Z,40
2017-04-17T04:29:36.549Z,50
2017-04-17T04:30:37.017Z,50
2017-04-17T04:31:37.457Z,50
2017-04-17T04:32:37.940Z,50
2017-04-17T04:33:38.433Z,55
2017-04-17T04:34:38.909Z,60
2017-04-17T04:35:39.348Z,60
2017-04-17T04:36:39.821Z,65
2017-04-17T04:37:40.285Z,65
2017-04-17T04:38:40.759Z,65
2017-04-17T04:39:41.242Z,65
2017-04-17T04:40:41.715Z,70
2017-04-17T04:41:42.156Z,75
2017-04-17T04:42:42.614Z,75
2017-04-17T04:43:43.081Z,80
2017-04-17T04:44:43.548Z,85
2017-04-17T04:45:43.994Z,90
2017-04-17T04:46:45.017Z,90
2017-04-17T04:47:44.998Z,95
2017-04-17T04:48:45.002Z,100
2017-04-17T04:49:45.023Z,100
2017-04-17T04:50:45.075Z,100
2017-04-17T04:51:45.110Z,100
2017-04-17T04:52:45.116Z,110
2017-04-17T04:53:45.163Z,115
2017-04-17T04:54:45.162Z,115
2017-04-17T04:55:45.195Z,115
2017-04-17T04:56:45.239Z,115
2017-04-17T04:57:45.266Z,120
2017-04-17T04:58:45.297Z,130
2017-04-17T04:59:45.271Z,125
2017-04-17T05:00:45.541Z,125
2017-04-17T05:01:45.371Z,130
2017-04-17T05:02:45.401Z,130
2017-04-17T05:03:45.382Z,145
2017-04-17T05:04:45.445Z,140
2017-04-17T05:05:45.470Z,140
2017-04-17T05:06:45.494Z,140
2017-04-17T05:07:45.520Z,155
2017-04-17T05:08:45.564Z,155
2017-04-17T05:09:45.746Z,155
2017-04-17T05:10:45.572Z,165
2017-04-17T05:11:45.677Z,165
2017-04-17T05:12:45.627Z,160
2017-04-17T05:13:45.698Z,160
2017-04-17T05:14:45.704Z,175
2017-04-17T05:15:45.712Z,175
2017-04-17T05:16:45.774Z,185
2017-04-17T05:17:45.801Z,195
2017-04-17T05:18:46.290Z,190
2017-04-17T05:19:45.850Z,205
2017-04-17T05:20:45.843Z,230
2017-04-17T05:21:45.892Z,225
2017-04-17T05:22:45.953Z,235
2017-04-17T05:23:45.957Z,295
2017-04-17T05:24:45.997Z,280
2017-04-17T05:25:45.983Z,390
2017-04-17T05:26:46.018Z,320
2017-04-17T05:27:46.095Z,270
2017-04-17T05:28:46.110Z,245
2017-04-17T05:29:46.122Z,235
2017-04-17T05:30:46.122Z,395
2017-04-17T05:31:46.169Z,585
2017-04-17T05:32:46.213Z,265
2017-04-17T05:33:46.227Z,580
2017-04-17T05:34:46.246Z,560
2017-04-17T05:35:46.309Z,470
2017-04-17T05:36:46.323Z,355
2017-04-17T05:37:46.358Z,275
2017-04-17T05:38:46.385Z,380
2017-04-17T05:39:46.426Z,430
2017-04-17T05:40:46.389Z,545
2017-04-17T05:41:46.451Z,280
2017-04-17T05:42:46.478Z,570
2017-04-17T05:43:46.516Z,365
2017-04-17T05:44:46.534Z,370
2017-04-17T05:45:46.550Z,425
2017-04-17T05:46:46.583Z,680
2017-04-17T05:47:46.632Z,500
2017-04-17T05:48:46.662Z,290
2017-04-17T05:49:46.682Z,275
2017-04-17T05:50:46.707Z,330
2017-04-17T05:51:46.746Z,465
2017-04-17T05:52:46.781Z,605
2017-04-17T05:53:46.881Z,480
2017-04-17T05:54:46.808Z,610
2017-04-17T05:55:46.889Z,525
2017-04-17T05:56:46.878Z,855
2017-04-17T05:57:46.948Z,420
2017-04-17T05:58:46.935Z,905
2017-04-17T05:59:46.982Z,670
2017-04-17T06:00:47.002Z,905
2017-04-17T06:01:47.022Z,360
2017-04-17T06:02:47.057Z,305
2017-04-17T06:03:47.147Z,580
2017-04-17T06:04:47.158Z,645
2017-04-17T06:05:47.159Z,950
2017-04-17T06:06:47.179Z,650
2017-04-17T06:07:47.209Z,1285
2017-04-17T06:08:47.250Z,1230
2017-04-17T06:09:47.278Z,330
2017-04-17T06:10:47.304Z,285
2017-04-17T06:11:47.335Z,500
2017-04-17T06:12:47.355Z,495
2017-04-17T06:13:47.412Z,430
2017-04-17T06:14:47.418Z,630
2017-04-17T06:15:47.451Z,285
2017-04-17T06:16:47.481Z,310
2017-04-17T06:17:47.492Z,435
2017-04-17T06:18:47.746Z,455
2017-04-17T06:19:48.413Z,250
2017-04-17T06:20:47.580Z,360
2017-04-17T06:21:47.652Z,1410
2017-04-17T06:22:47.677Z,1410
2017-04-17T06:23:47.712Z,1015
2017-04-17T06:24:47.740Z,1080
2017-04-17T06:25:47.947Z,560
2017-04-17T06:26:47.790Z,1040
2017-04-17T06:27:47.978Z,540
2017-04-17T06:28:48.064Z,485
2017-04-17T06:29:47.903Z,1175
2017-04-17T06:30:47.906Z,1495
2017-04-17T06:31:47.942Z,1645
2017-04-17T06:32:47.982Z,1610
2017-04-17T06:33:48.007Z,455
2017-04-17T06:34:48.038Z,385
2017-04-17T06:35:48.100Z,1390
2017-04-17T06:36:48.113Z,1680
2017-04-17T06:37:48.459Z,1630
2017-04-17T06:38:48.193Z,1745
2017-04-17T06:39:48.190Z,1670
2017-04-17T06:40:48.242Z,1580
2017-04-17T06:41:48.291Z,1665
2017-04-17T06:42:48.296Z,1670
2017-04-17T06:43:48.373Z,1680
2017-04-17T06:44:48.386Z,1695
2017-04-17T06:45:48.458Z,1545
2017-04-17T06:46:48.460Z,1720
2017-04-17T06:47:48.504Z,1780
2017-04-17T06:48:48.524Z,1760
2017-04-17T06:49:48.541Z,480
2017-04-17T06:50:48.601Z,1755
2017-04-17T06:51:48.692Z,1785
2017-04-17T06:52:48.667Z,575
2017-04-17T06:53:48.704Z,1455
2017-04-17T06:54:48.743Z,1590
2017-04-17T06:55:48.782Z,1780
2017-04-17T06:56:48.830Z,1880
2017-04-17T06:57:48.834Z,1820
2017-04-17T06:58:48.890Z,1445
2017-04-17T06:59:48.913Z,1830
2017-04-17T07:00:48.944Z,890
2017-04-17T07:01:49.002Z,480
2017-04-17T07:02:49.013Z,655
2017-04-17T07:03:49.055Z,1580
2017-04-17T07:04:49.086Z,1105
2017-04-17T07:05:49.119Z,345
2017-04-17T07:06:49.163Z,490
2017-04-17T07:07:49.190Z,2110
2017-04-17T07:08:49.242Z,2065
2017-04-17T07:09:49.295Z,1730
2017-04-17T07:10:49.322Z,1610
2017-04-17T07:11:49.313Z,890
2017-04-17T07:12:49.390Z,2010
2017-04-17T07:13:49.427Z,2035
2017-04-17T07:14:49.448Z,2080
2017-04-17T07:15:49.498Z,2020
2017-04-17T07:16:49.515Z,1820
2017-04-17T07:17:49.577Z,655
2017-04-17T07:18:49.605Z,950
2017-04-17T07:19:49.641Z,550
2017-04-17T07:20:49.906Z,475
2017-04-17T07:21:49.705Z,520
2017-04-17T07:22:49.743Z,540
2017-04-17T07:23:49.785Z,555
2017-04-17T07:24:49.821Z,555
2017-04-17T07:25:49.869Z,470
2017-04-17T07:26:49.907Z,475
2017-04-17T07:27:49.924Z,1165
2017-04-17T07:28:49.964Z,815
2017-04-17T07:29:50.083Z,900
2017-04-17T07:30:50.042Z,660
2017-04-17T07:31:50.083Z,960
2017-04-17T07:32:50.138Z,535
2017-04-17T07:33:50.150Z,650
2017-04-17T07:34:50.206Z,725
2017-04-17T07:35:50.242Z,875
2017-04-17T07:36:50.274Z,555
2017-04-17T07:37:50.356Z,540
2017-04-17T07:38:50.326Z,530
2017-04-17T07:39:50.378Z,790
2017-04-17T07:40:50.411Z,505
2017-04-17T07:41:50.402Z,540
2017-04-17T07:42:50.493Z,2275
2017-04-17T07:43:50.507Z,1785
2017-04-17T07:44:50.542Z,555
2017-04-17T07:45:50.584Z,545
2017-04-17T07:46:50.628Z,580
2017-04-17T07:47:50.623Z,610
2017-04-17T07:48:50.687Z,570
2017-04-17T07:49:50.743Z,2140
2017-04-17T07:50:50.748Z,2255
2017-04-17T07:51:50.798Z,1870
2017-04-17T07:52:50.847Z,795
2017-04-17T07:53:50.877Z,980
2017-04-17T07:54:50.916Z,905
2017-04-17T07:55:50.942Z,2090
2017-04-17T07:56:50.977Z,1820
2017-04-17T07:57:51.016Z,1230
2017-04-17T07:58:51.056Z,400
2017-04-17T07:59:51.073Z,340
2017-04-17T08:00:51.154Z,325
2017-04-17T08:01:51.155Z,320
2017-04-17T08:02:51.210Z,355
2017-04-17T08:03:51.280Z,365
2017-04-17T08:04:51.268Z,460
2017-04-17T08:05:51.285Z,2330
2017-04-17T08:06:51.324Z,2565
2017-04-17T08:07:51.386Z,2490
2017-04-17T08:08:51.400Z,1245
2017-04-17T08:09:51.435Z,1550
2017-04-17T08:10:51.487Z,2150
2017-04-17T08:11:51.533Z,2645
2017-04-17T08:12:51.659Z,2305
2017-04-17T08:13:51.569Z,845
2017-04-17T08:14:51.618Z,685
2017-04-17T08:15:51.685Z,615
2017-04-17T08:16:51.716Z,555
2017-04-17T08:17:51.750Z,490
2017-04-17T08:18:51.796Z,530
2017-04-17T08:19:51.835Z,515
2017-04-17T08:20:51.856Z,545
2017-04-17T08:21:51.987Z,2715
2017-04-17T08:22:51.939Z,2360
2017-04-17T08:23:51.987Z,1785
2017-04-17T08:24:52.018Z,2295
2017-04-17T08:25:52.044Z,2510
2017-04-17T08:26:52.077Z,2825
2017-04-17T08:27:52.148Z,2765
2017-04-17T08:28:52.159Z,2570
2017-04-17T08:29:52.220Z,2300
2017-04-17T08:30:52.245Z,2355
2017-04-17T08:31:52.288Z,2420
2017-04-17T08:32:52.328Z,2380
2017-04-17T08:33:52.368Z,1120
2017-04-17T08:34:52.398Z,1075
2017-04-17T08:35:52.416Z,945
2017-04-17T08:36:52.455Z,770
2017-04-17T08:37:52.518Z,685
2017-04-17T08:38:52.557Z,435
2017-04-17T08:39:52.795Z,340
2017-04-17T08:40:52.659Z,315
2017-04-17T08:41:52.678Z,300
2017-04-17T08:42:52.746Z,320
2017-04-17T08:43:52.765Z,345
2017-04-17T08:44:52.803Z,375
2017-04-17T08:45:52.838Z,445
2017-04-17T08:46:52.876Z,450
2017-04-17T08:47:52.897Z,470
2017-04-17T08:48:52.924Z,515
2017-04-17T08:49:52.988Z,535
2017-04-17T08:50:53.020Z,555
2017-04-17T08:51:53.059Z,2750
2017-04-17T08:52:53.088Z,2715
2017-04-17T08:53:53.142Z,2740
2017-04-17T08:54:53.175Z,2830
2017-04-17T08:55:53.294Z,2820
2017-04-17T08:56:53.253Z,2805
2017-04-17T08:57:53.281Z,2920
2017-04-17T08:58:53.322Z,2625
2017-04-17T08:59:53.392Z,1305
2017-04-17T09:00:53.484Z,1200
2017-04-17T09:01:53.447Z,410
2017-04-17T09:02:53.484Z,335
2017-04-17T09:03:53.515Z,310
2017-04-17T09:04:53.853Z,260
2017-04-17T09:05:53.588Z,255
2017-04-17T09:06:53.640Z,275
2017-04-17T09:07:53.687Z,320
2017-04-17T09:08:53.707Z,310
2017-04-17T09:09:53.757Z,290
2017-04-17T09:10:53.798Z,225
2017-04-17T09:11:53.837Z,165
2017-04-17T09:12:53.943Z,135
2017-04-17T09:13:53.920Z,145
2017-04-17T09:14:53.949Z,155
2017-04-17T09:15:53.986Z,155
2017-04-17T09:16:54.030Z,150
2017-04-17T09:17:54.063Z,150
2017-04-17T09:18:54.063Z,160
2017-04-17T09:19:54.136Z,185
2017-04-17T09:20:54.161Z,225
2017-04-17T09:21:54.196Z,260
2017-04-17T09:22:54.208Z,300
2017-04-17T09:23:54.272Z,325
2017-04-17T09:24:54.306Z,355
2017-04-17T09:25:54.631Z,440
2017-04-17T09:26:54.373Z,535
2017-04-17T09:27:54.426Z,675
2017-04-17T09:28:54.468Z,3385
2017-04-17T09:29:54.467Z,2245
2017-04-17T09:30:54.597Z,1270
2017-04-17T09:31:54.547Z,1650
2017-04-17T09:32:54.589Z,1190
2017-04-17T09:33:54.631Z,935
2017-04-17T09:34:54.668Z,1375
2017-04-17T09:35:54.679Z,1265
2017-04-17T09:36:54.712Z,3245
2017-04-17T09:37:54.970Z,3255
2017-04-17T09:38:54.793Z,3010
2017-04-17T09:39:54.853Z,3045
2017-04-17T09:40:55.072Z,3070
2017-04-17T09:41:54.887Z,3220
2017-04-17T09:42:54.945Z,3275
2017-04-17T09:43:54.994Z,3225
2017-04-17T09:44:54.993Z,3275
2017-04-17T09:45:55.077Z,2855
2017-04-17T09:46:55.331Z,3440
2017-04-17T09:47:55.127Z,3310
2017-04-17T09:48:55.177Z,3470
2017-04-17T09:49:55.197Z,3470
2017-04-17T09:50:55.426Z,3415
2017-04-17T09:51:55.301Z,2590
2017-04-17T09:52:55.326Z,2910
2017-04-17T09:53:55.393Z,2520
2017-04-17T09:54:55.452Z,365
2017-04-17T09:55:55.739Z,315
2017-04-17T09:56:55.493Z,335
2017-04-17T09:57:55.567Z,1565
2017-04-17T09:58:55.595Z,1490
2017-04-17T09:59:56.473Z,1330
2017-04-17T10:00:57.813Z,1190
2017-04-17T10:01:55.707Z,1055
2017-04-17T10:02:55.787Z,1010
2017-04-17T10:03:55.823Z,995
2017-04-17T10:04:55.865Z,1000
2017-04-17T10:05:55.886Z,975
2017-04-17T10:06:55.917Z,940
2017-04-17T10:07:55.970Z,925
2017-04-17T10:08:56.013Z,455
2017-04-17T10:09:56.064Z,780
2017-04-17T10:10:56.102Z,980
2017-04-17T10:11:56.144Z,580
2017-04-17T10:12:56.166Z,465
2017-04-17T10:13:56.214Z,375
2017-04-17T10:14:56.269Z,325
2017-04-17T10:15:56.622Z,315
2017-04-17T10:16:56.338Z,305
2017-04-17T10:17:56.386Z,305
2017-04-17T10:18:56.446Z,295
2017-04-17T10:19:56.433Z,285
2017-04-17T10:20:56.638Z,285
2017-04-17T10:21:56.544Z,275
2017-04-17T10:22:56.584Z,265
2017-04-17T10:23:56.624Z,255
2017-04-17T10:24:56.681Z,250
2017-04-17T10:25:56.852Z,255
2017-04-17T10:26:56.738Z,255
2017-04-17T10:27:56.771Z,255
2017-04-17T10:28:56.790Z,270
2017-04-17T10:29:56.850Z,290
2017-04-17T10:30:56.959Z,335
2017-04-17T10:31:56.931Z,430
2017-04-17T10:32:56.912Z,460
2017-04-17T10:33:56.961Z,515
2017-04-17T10:34:57.028Z,565
2017-04-17T10:35:57.228Z,655
2017-04-17T10:36:57.094Z,775
2017-04-17T10:37:57.410Z,830
2017-04-17T10:38:57.177Z,795
2017-04-17T10:39:57.197Z,740
2017-04-17T10:40:57.222Z,680
2017-04-17T10:41:57.287Z,640
2017-04-17T10:42:57.286Z,690
2017-04-17T10:43:57.346Z,745
2017-04-17T10:44:57.381Z,725
2017-04-17T10:45:57.598Z,750
2017-04-17T10:47:03.330Z,750
2017-04-17T10:47:57.467Z,700
2017-04-17T10:48:57.473Z,710
2017-04-17T10:49:57.534Z,695
2017-04-17T10:50:57.584Z,665
2017-04-17T10:51:57.610Z,690
2017-04-17T10:52:57.657Z,650
2017-04-17T10:53:57.691Z,670
2017-04-17T10:54:57.712Z,680
2017-04-17T10:55:57.738Z,690
2017-04-17T10:56:57.787Z,685
2017-04-17T10:57:57.814Z,650
2017-04-17T10:58:57.843Z,625
2017-04-17T10:59:57.890Z,645
2017-04-17T11:00:57.953Z,665
2017-04-17T11:01:57.962Z,670
2017-04-17T11:02:58.036Z,665
2017-04-17T11:03:58.219Z,680
2017-04-17T11:04:58.060Z,595
2017-04-17T11:05:58.091Z,515
2017-04-17T11:06:58.124Z,545
2017-04-17T11:07:58.134Z,605
2017-04-17T11:08:58.189Z,540
2017-04-17T11:09:58.233Z,500
2017-04-17T11:10:58.308Z,475
2017-04-17T11:11:58.331Z,455
2017-04-17T11:12:58.316Z,460
2017-04-17T11:13:58.368Z,485
2017-04-17T11:14:58.361Z,490
2017-04-17T11:15:58.436Z,405
2017-04-17T11:16:58.471Z,375
2017-04-17T11:17:58.489Z,375
2017-04-17T11:18:58.531Z,360
2017-04-17T11:19:58.800Z,335
2017-04-17T11:20:58.583Z,330
2017-04-17T11:21:58.635Z,325
2017-04-17T11:22:58.670Z,335
2017-04-17T11:23:58.685Z,325
2017-04-17T11:24:58.738Z,315
2017-04-17T11:25:58.767Z,295
2017-04-17T11:26:58.803Z,255
2017-04-17T11:27:58.845Z,230
2017-04-17T11:28:59.038Z,235
2017-04-17T11:29:58.883Z,255
2017-04-17T11:30:58.903Z,285
2017-04-17T11:31:58.971Z,315
2017-04-17T11:32:58.959Z,330
2017-04-17T11:33:59.038Z,330
2017-04-17T11:34:59.073Z,320
2017-04-17T11:35:59.060Z,310
2017-04-17T11:36:59.302Z,305
2017-04-17T11:37:59.172Z,295
2017-04-17T11:38:59.212Z,295
2017-04-17T11:39:59.232Z,295
2017-04-17T11:40:59.263Z,300
2017-04-17T11:41:59.269Z,305
2017-04-17T11:42:59.328Z,300
2017-04-17T11:43:59.361Z,295
2017-04-17T11:44:59.387Z,285
2017-04-17T11:45:59.422Z,280
2017-04-17T11:46:59.460Z,280
2017-04-17T11:47:59.472Z,280
2017-04-17T11:48:59.507Z,290
2017-04-17T11:49:59.562Z,320
2017-04-17T11:50:59.567Z,330
2017-04-17T11:51:59.637Z,350
2017-04-17T11:52:59.649Z,375
2017-04-17T11:53:59.674Z,440
2017-04-17T11:54:59.676Z,510
2017-04-17T11:55:59.775Z,575
2017-04-17T11:56:59.743Z,570
2017-04-17T11:57:59.765Z,495
2017-04-17T11:58:59.839Z,435
2017-04-17T11:59:59.873Z,350
2017-04-17T12:00:59.922Z,300
2017-04-17T12:01:59.904Z,305
2017-04-17T12:02:59.959Z,330
2017-04-17T12:03:59.994Z,365
2017-04-17T12:05:00.028Z,420
2017-04-17T12:06:00.031Z,440
2017-04-17T12:07:00.094Z,445
2017-04-17T12:08:00.128Z,435
2017-04-17T12:09:00.159Z,405
2017-04-17T12:10:00.146Z,380
2017-04-17T12:11:00.216Z,360
2017-04-17T12:12:00.228Z,345
2017-04-17T12:13:00.289Z,335
2017-04-17T12:14:00.296Z,330
2017-04-17T12:15:00.318Z,330
2017-04-17T12:16:00.366Z,315
2017-04-17T12:17:00.389Z,315
2017-04-17T12:18:00.433Z,305
2017-04-17T12:19:00.464Z,300
2017-04-17T12:20:00.510Z,290
2017-04-17T12:21:00.529Z,290
2017-04-17T12:22:00.556Z,300
2017-04-17T12:23:00.609Z,315
2017-04-17T12:24:00.578Z,335
2017-04-17T12:25:00.690Z,385
2017-04-17T12:26:00.698Z,405
2017-04-17T12:27:00.707Z,450
2017-04-17T12:28:00.840Z,435
2017-04-17T12:29:00.790Z,410
2017-04-17T12:30:00.846Z,380
2017-04-17T12:31:00.849Z,310
2017-04-17T12:32:00.883Z,240
2017-04-17T12:33:00.908Z,200
2017-04-17T12:34:00.956Z,165
2017-04-17T12:35:00.991Z,140
2017-04-17T12:36:00.993Z,130
2017-04-17T12:37:01.044Z,125
2017-04-17T12:38:01.086Z,130
2017-04-17T12:39:01.088Z,125
2017-04-17T12:40:01.138Z,125
2017-04-17T12:41:01.155Z,125
2017-04-17T12:42:01.201Z,130
2017-04-17T12:43:01.223Z,145
2017-04-17T12:44:01.296Z,160
2017-04-17T12:45:01.346Z,165
2017-04-17T12:46:01.332Z,175
2017-04-17T12:47:01.368Z,180
2017-04-17T12:48:01.394Z,185
2017-04-17T12:49:01.415Z,190
2017-04-17T12:50:01.434Z,195
2017-04-17T12:51:01.488Z,205
2017-04-17T12:52:01.673Z,220
2017-04-17T12:53:01.552Z,235
2017-04-17T12:54:01.557Z,255
2017-04-17T12:55:01.591Z,265
2017-04-17T12:56:01.641Z,265
2017-04-17T12:57:01.675Z,285
2017-04-17T12:58:01.706Z,315
2017-04-17T12:59:01.739Z,330
2017-04-17T13:00:01.771Z,335
2017-04-17T13:01:02.101Z,335
2017-04-17T13:02:01.838Z,330
2017-04-17T13:03:01.868Z,325
2017-04-17T13:04:01.877Z,305
2017-04-17T13:05:01.924Z,285
2017-04-17T13:06:01.935Z,270
2017-04-17T13:07:01.990Z,255
2017-04-17T13:08:02.037Z,245
2017-04-17T13:09:02.043Z,230
2017-04-17T13:10:02.073Z,220
2017-04-17T13:11:02.109Z,215
2017-04-17T13:12:02.136Z,205
2017-04-17T13:13:02.174Z,200
2017-04-17T13:14:02.186Z,190
2017-04-17T13:15:02.224Z,185
2017-04-17T13:16:02.272Z,185
2017-04-17T13:17:02.299Z,180
2017-04-17T13:18:02.399Z,180
2017-04-17T13:19:02.376Z,180
2017-04-17T13:20:02.390Z,180
2017-04-17T13:21:02.422Z,180
2017-04-17T13:22:02.463Z,180
2017-04-17T13:23:02.474Z,180
2017-04-17T13:24:02.495Z,180
2017-04-17T13:25:02.546Z,180
2017-04-17T13:26:02.567Z,180
2017-04-17T13:27:02.602Z,180
2017-04-17T13:28:02.624Z,180
2017-04-17T13:29:02.670Z,165
2017-04-17T13:30:02.673Z,160
2017-04-17T13:31:02.723Z,160
2017-04-17T13:32:02.757Z,180
2017-04-17T13:33:02.796Z,180
2017-04-17T13:34:02.797Z,170
2017-04-17T13:35:02.856Z,185
2017-04-17T13:36:02.898Z,180
2017-04-17T13:37:02.925Z,200
2017-04-17T13:38:02.949Z,205
2017-04-17T13:39:02.943Z,200
2017-04-17T13:40:02.983Z,200
2017-04-17T13:41:03.018Z,200
2017-04-17T13:42:03.074Z,195
2017-04-17T13:43:03.105Z,195
2017-04-17T13:44:03.357Z,200
2017-04-17T13:45:03.125Z,205
2017-04-17T13:46:03.194Z,210
2017-04-17T13:47:03.260Z,215
2017-04-17T13:48:03.238Z,230
2017-04-17T13:49:03.268Z,235
2017-04-17T13:50:03.305Z,240
2017-04-17T13:51:03.340Z,255
2017-04-17T13:52:03.480Z,265
2017-04-17T13:53:03.421Z,275
2017-04-17T13:54:03.451Z,270
2017-04-17T13:55:03.447Z,260
2017-04-17T13:56:03.600Z,250
2017-04-17T13:57:03.514Z,245
2017-04-17T13:58:03.574Z,245
2017-04-17T13:59:03.600Z,250
2017-04-17T14:00:03.628Z,240
2017-04-17T14:01:03.795Z,255
2017-04-17T14:02:03.690Z,255
2017-04-17T14:03:03.728Z,250